Time;durP1;ratioP1;P1;durP2;ratioP2;P2;SDS_P1;SDS_P2;PMS_P1;PMS_P2;Temp;Humidity;BMP_temperature;BMP_pressure;BME280_temperature;BME280_humidity;BME280_pressure;Samples;Min_cycle;Max_cycle;Signal;HPM_P1;HPM_P2
2024/02/18 00:02:23;;;;;;;19.43;10.07;;;6.30;99.90;;;;;;5103141;28;20445;-67
2024/02/18 00:04:52;;;;;;;19.50;10.53;;;6.20;99.90;;;;;;5103628;28;20477;-67
2024/02/18 00:07:21;;;;;;;20.50;11.27;;;6.10;99.90;;;;;;5093831;28;20445;-66
2024/02/18 00:09:49;;;;;;;20.00;10.70;;;6.20;99.90;;;;;;5098591;28;20591;-66
2024/02/18 00:12:17;;;;;;;17.13;10.97;;;6.30;99.90;;;;;;5102613;28;20952;-68
2024/02/18 00:14:45;;;;;;;21.67;10.57;;;6.30;99.90;;;;;;5099466;28;20464;-69
2024/02/18 00:17:13;;;;;;;17.50;10.40;;;6.40;99.90;;;;;;5092430;28;20446;-67
2024/02/18 00:19:41;;;;;;;18.93;10.97;;;6.30;99.90;;;;;;5095664;28;20892;-67
2024/02/18 00:22:10;;;;;;;17.90;10.63;;;6.30;99.90;;;;;;5104052;28;20429;-66
2024/02/18 00:24:38;;;;;;;18.50;10.07;;;6.30;99.90;;;;;;5096630;28;20450;-67
2024/02/18 00:27:08;;;;;;;20.10;12.10;;;6.30;99.90;;;;;;5098652;28;20437;-67
2024/02/18 00:29:36;;;;;;;20.13;10.50;;;6.30;99.90;;;;;;5089017;28;20686;-67
2024/02/18 00:32:05;;;;;;;15.80;8.63;;;6.40;99.90;;;;;;5096748;28;20441;-67
2024/02/18 00:34:32;;;;;;;17.70;10.07;;;6.40;99.90;;;;;;5093362;28;20463;-67
2024/02/18 00:37:04;;;;;;;16.83;10.00;;;6.40;99.90;;;;;;5095376;28;20449;-68
2024/02/18 00:39:33;;;;;;;18.30;9.03;;;6.50;99.90;;;;;;5101265;28;20438;-66
2024/02/18 00:42:01;;;;;;;17.03;9.60;;;6.50;99.90;;;;;;5096207;28;20433;-67
2024/02/18 00:44:31;;;;;;;19.60;11.30;;;6.50;99.90;;;;;;5097628;28;21054;-67
2024/02/18 00:46:59;;;;;;;21.70;11.30;;;6.50;99.90;;;;;;5089301;28;20438;-67
2024/02/18 00:49:33;;;;;;;19.33;10.97;;;6.60;99.90;;;;;;5097551;28;20481;-67
2024/02/18 00:52:02;;;;;;;20.30;11.23;;;6.70;99.90;;;;;;5099039;28;20528;-67
2024/02/18 00:54:32;;;;;;;18.90;10.90;;;6.70;99.90;;;;;;5093252;28;20470;-67
2024/02/18 00:57:00;;;;;;;20.60;11.30;;;6.70;99.90;;;;;;5092561;28;20465;-67
2024/02/18 00:59:28;;;;;;;20.93;11.60;;;6.70;99.90;;;;;;5092721;28;20452;-67
2024/02/18 01:01:56;;;;;;;19.63;11.10;;;6.70;99.90;;;;;;5101401;28;20452;-68
2024/02/18 01:04:24;;;;;;;16.73;9.40;;;6.70;99.90;;;;;;5100909;28;20495;-67
2024/02/18 01:06:52;;;;;;;16.47;10.07;;;6.70;99.90;;;;;;5101237;28;20445;-67
2024/02/18 01:09:21;;;;;;;20.80;10.97;;;6.70;99.90;;;;;;5099888;28;20595;-67
2024/02/18 01:11:51;;;;;;;18.73;10.90;;;6.80;99.90;;;;;;5093793;28;20435;-67
2024/02/18 01:14:19;;;;;;;20.47;12.37;;;6.80;99.90;;;;;;5099891;28;20541;-68
2024/02/18 01:16:47;;;;;;;18.90;11.83;;;6.70;99.90;;;;;;5095789;28;20526;-67
2024/02/18 01:19:15;;;;;;;22.30;12.60;;;6.70;99.90;;;;;;5099861;28;20474;-67
2024/02/18 01:21:43;;;;;;;21.00;13.00;;;6.70;99.90;;;;;;5094752;28;20518;-67
2024/02/18 01:24:11;;;;;;;20.73;12.37;;;6.60;99.90;;;;;;5098889;28;20480;-67
2024/02/18 01:26:39;;;;;;;19.80;10.93;;;6.60;99.90;;;;;;5093844;28;20454;-68
2024/02/18 01:29:08;;;;;;;17.37;10.60;;;6.60;99.90;;;;;;5096969;28;20485;-67
2024/02/18 01:31:36;;;;;;;18.03;11.07;;;6.60;99.90;;;;;;5095585;28;20524;-67
2024/02/18 01:34:04;;;;;;;19.10;10.90;;;6.60;99.90;;;;;;5098497;28;20462;-67
2024/02/18 01:36:32;;;;;;;18.10;10.80;;;6.50;99.90;;;;;;5097250;28;20477;-66
2024/02/18 01:39:00;;;;;;;16.10;10.57;;;6.40;99.90;;;;;;5088504;28;20443;-67
2024/02/18 01:41:28;;;;;;;18.70;11.10;;;6.40;99.90;;;;;;5084918;28;20478;-67
2024/02/18 01:43:56;;;;;;;16.77;10.83;;;6.40;99.90;;;;;;5107026;28;20544;-67
2024/02/18 01:46:26;;;;;;;20.07;10.90;;;6.50;99.90;;;;;;5106131;28;21009;-67
2024/02/18 01:48:54;;;;;;;20.60;11.40;;;6.50;99.90;;;;;;5106232;28;20451;-67
2024/02/18 01:51:23;;;;;;;16.80;9.87;;;6.40;99.90;;;;;;5098438;27;20524;-68
2024/02/18 01:53:52;;;;;;;17.20;10.30;;;6.20;99.90;;;;;;5105808;28;20466;-67
2024/02/18 01:56:21;;;;;;;16.80;10.83;;;6.20;99.90;;;;;;5104283;28;20468;-67
2024/02/18 01:58:50;;;;;;;20.10;10.47;;;6.10;99.90;;;;;;5106747;28;20528;-67
2024/02/18 02:01:18;;;;;;;18.50;10.27;;;6.10;99.90;;;;;;5090345;28;20533;-68
2024/02/18 02:03:49;;;;;;;18.60;10.40;;;6.00;99.90;;;;;;5104536;28;20464;-68
2024/02/18 02:06:18;;;;;;;18.73;9.97;;;6.00;99.90;;;;;;5098451;28;20530;-68
2024/02/18 02:08:47;;;;;;;18.93;11.97;;;6.00;99.90;;;;;;5088732;28;20461;-67
2024/02/18 02:11:15;;;;;;;17.47;10.27;;;6.00;99.90;;;;;;5100320;28;20524;-66
2024/02/18 02:13:43;;;;;;;19.83;11.23;;;6.00;99.90;;;;;;5101411;28;20477;-67
2024/02/18 02:16:11;;;;;;;17.67;10.67;;;6.10;99.90;;;;;;5107970;28;20459;-67
2024/02/18 02:18:39;;;;;;;19.20;10.60;;;6.00;99.90;;;;;;5107847;28;20448;-67
2024/02/18 02:21:08;;;;;;;17.90;11.17;;;6.00;99.90;;;;;;5093064;28;20442;-67
2024/02/18 02:23:36;;;;;;;16.63;9.67;;;6.00;99.90;;;;;;5089264;28;20983;-66
2024/02/18 02:26:05;;;;;;;17.97;10.50;;;6.00;99.90;;;;;;5089452;28;20450;-67
2024/02/18 02:28:37;;;;;;;16.70;10.67;;;6.00;99.90;;;;;;5109477;28;20461;-67
2024/02/18 02:31:07;;;;;;;17.10;9.77;;;5.90;99.90;;;;;;5108325;28;20483;-68
2024/02/18 02:33:35;;;;;;;17.80;10.83;;;5.80;99.90;;;;;;5108552;28;20561;-67
2024/02/18 02:36:04;;;;;;;21.83;10.53;;;5.70;99.90;;;;;;5107332;28;20437;-67
2024/02/18 02:38:35;;;;;;;18.60;10.87;;;5.80;99.90;;;;;;5107934;28;20795;-68
2024/02/18 02:41:03;;;;;;;19.97;11.00;;;5.90;99.90;;;;;;5107554;28;20989;-67
2024/02/18 02:43:32;;;;;;;20.93;10.50;;;5.90;99.90;;;;;;5104259;28;20556;-67
2024/02/18 02:46:00;;;;;;;17.83;12.07;;;5.70;99.90;;;;;;5088618;28;20518;-67
2024/02/18 02:48:30;;;;;;;16.37;10.30;;;5.60;99.90;;;;;;5087818;28;20456;-68
2024/02/18 02:50:58;;;;;;;20.20;11.07;;;5.70;99.90;;;;;;5087003;28;21014;-66
2024/02/18 02:53:27;;;;;;;19.00;10.10;;;5.60;99.90;;;;;;5086532;28;21395;-67
2024/02/18 02:55:55;;;;;;;19.47;10.90;;;5.50;99.90;;;;;;5093782;28;20441;-67
2024/02/18 02:58:23;;;;;;;22.90;12.43;;;5.40;99.90;;;;;;5107475;28;20529;-67
2024/02/18 03:00:51;;;;;;;19.27;11.47;;;5.40;99.90;;;;;;5107407;28;20506;-68
2024/02/18 03:03:19;;;;;;;17.77;10.93;;;5.40;99.90;;;;;;5106987;28;20452;-68
2024/02/18 03:05:49;;;;;;;23.47;12.60;;;5.30;99.90;;;;;;5103652;28;20450;-67
2024/02/18 03:08:17;;;;;;;25.27;13.20;;;5.30;99.90;;;;;;5088437;28;20473;-67
2024/02/18 03:10:45;;;;;;;21.87;12.77;;;5.30;99.90;;;;;;5087943;28;20553;-67
2024/02/18 03:13:13;;;;;;;20.07;12.00;;;5.20;99.90;;;;;;5088526;28;20453;-67
2024/02/18 03:15:42;;;;;;;20.47;11.63;;;5.10;99.90;;;;;;5104571;28;20969;-67
2024/02/18 03:18:10;;;;;;;21.87;13.20;;;5.00;99.90;;;;;;5092472;28;20520;-67
2024/02/18 03:20:38;;;;;;;19.93;12.47;;;5.10;99.90;;;;;;5087998;28;20459;-67
2024/02/18 03:23:07;;;;;;;22.50;12.37;;;5.10;99.90;;;;;;5087766;28;20522;-67
2024/02/18 03:25:36;;;;;;;23.23;13.37;;;5.20;99.90;;;;;;5093362;28;20450;-67
2024/02/18 03:28:05;;;;;;;20.93;11.70;;;5.20;99.90;;;;;;5106852;28;20508;-68
2024/02/18 03:30:33;;;;;;;18.50;11.50;;;5.10;99.90;;;;;;5107916;28;20494;-67
2024/02/18 03:33:01;;;;;;;19.87;11.27;;;5.20;99.90;;;;;;5107714;28;20453;-68
2024/02/18 03:35:29;;;;;;;18.20;12.40;;;5.00;99.90;;;;;;5096777;28;20465;-67
2024/02/18 03:37:58;;;;;;;20.20;12.40;;;5.00;99.90;;;;;;5088291;28;20477;-68
2024/02/18 03:40:27;;;;;;;18.00;12.00;;;5.00;99.90;;;;;;5105417;28;20940;-68
2024/02/18 03:42:55;;;;;;;19.37;12.47;;;5.10;99.90;;;;;;5107569;28;20501;-68
2024/02/18 03:45:23;;;;;;;21.30;12.43;;;5.10;99.90;;;;;;5095906;28;20498;-68
2024/02/18 03:47:51;;;;;;;22.97;12.97;;;5.00;99.90;;;;;;5107447;28;20456;-68
2024/02/18 03:50:19;;;;;;;21.10;12.43;;;5.20;99.90;;;;;;5108174;28;20492;-68
2024/02/18 03:52:47;;;;;;;18.20;11.60;;;5.10;99.90;;;;;;5107726;28;21014;-68
2024/02/18 03:55:16;;;;;;;19.17;11.63;;;5.10;99.90;;;;;;5099626;28;20467;-68
2024/02/18 03:57:46;;;;;;;21.20;12.17;;;5.00;99.90;;;;;;5087189;28;20529;-67
2024/02/18 04:00:14;;;;;;;19.37;11.33;;;5.00;99.90;;;;;;5099008;28;20440;-68
2024/02/18 04:02:45;;;;;;;20.57;12.10;;;5.00;99.90;;;;;;5106972;28;20455;-68
2024/02/18 04:05:13;;;;;;;20.83;12.73;;;4.90;99.90;;;;;;5099061;28;20471;-68
2024/02/18 04:07:41;;;;;;;20.57;11.73;;;4.90;99.90;;;;;;5086804;28;20453;-69
2024/02/18 04:10:10;;;;;;;23.73;12.73;;;5.10;99.90;;;;;;5095038;28;20486;-67
2024/02/18 04:12:38;;;;;;;18.60;11.53;;;5.20;99.90;;;;;;5106560;28;21336;-68
2024/02/18 04:15:08;;;;;;;17.90;11.30;;;5.10;99.90;;;;;;5100649;28;20545;-68
2024/02/18 04:17:36;;;;;;;18.00;11.10;;;5.10;99.90;;;;;;5094468;28;20461;-67
2024/02/18 04:20:09;;;;;;;18.60;11.60;;;5.00;99.90;;;;;;5107708;28;20450;-68
2024/02/18 04:22:36;;;;;;;20.13;11.87;;;5.10;99.90;;;;;;5102582;28;20453;-68
2024/02/18 04:25:05;;;;;;;18.67;11.47;;;5.10;99.90;;;;;;5086419;28;20476;-68
2024/02/18 04:27:33;;;;;;;17.13;10.50;;;5.10;99.90;;;;;;5085410;28;20493;-68
2024/02/18 04:30:01;;;;;;;20.27;13.00;;;5.10;99.90;;;;;;5101171;28;20531;-67
2024/02/18 04:32:31;;;;;;;19.40;11.23;;;5.20;99.90;;;;;;5103214;28;20561;-68
2024/02/18 04:34:59;;;;;;;20.97;11.60;;;5.40;99.90;;;;;;5104779;28;20479;-67
2024/02/18 04:37:27;;;;;;;20.03;12.33;;;5.30;99.90;;;;;;5106570;28;20892;-68
2024/02/18 04:39:55;;;;;;;19.57;11.60;;;5.20;99.90;;;;;;5106807;28;21169;-68
2024/02/18 04:42:23;;;;;;;21.47;12.80;;;5.20;99.90;;;;;;5105082;28;21041;-68
2024/02/18 04:44:50;;;;;;;20.50;12.67;;;5.10;99.90;;;;;;5087098;28;20473;-68
2024/02/18 04:47:18;;;;;;;18.87;11.20;;;5.10;99.90;;;;;;5086244;28;20442;-68
2024/02/18 04:49:48;;;;;;;18.63;12.00;;;5.20;99.90;;;;;;5095285;28;20465;-68
2024/02/18 04:52:16;;;;;;;19.67;12.00;;;5.30;99.90;;;;;;5105538;28;20811;-68
2024/02/18 04:54:44;;;;;;;21.77;12.80;;;5.20;99.90;;;;;;5099672;28;20544;-67
2024/02/18 04:57:12;;;;;;;20.97;11.97;;;5.20;99.90;;;;;;5107151;28;20441;-68
2024/02/18 04:59:42;;;;;;;21.80;12.60;;;5.20;99.90;;;;;;5107792;28;20441;-67
2024/02/18 05:02:11;;;;;;;21.27;11.73;;;5.20;99.90;;;;;;5105987;28;20433;-68
2024/02/18 05:04:39;;;;;;;20.73;11.67;;;5.20;99.90;;;;;;5091182;28;20850;-68
2024/02/18 05:07:14;;;;;;;20.97;12.40;;;5.10;99.90;;;;;;5103637;28;20455;-68
2024/02/18 05:09:42;;;;;;;19.80;11.90;;;5.00;99.90;;;;;;5085633;28;20445;-68
2024/02/18 05:12:10;;;;;;;22.37;12.07;;;4.80;99.90;;;;;;5087864;28;20565;-68
2024/02/18 05:14:38;;;;;;;19.67;12.07;;;4.70;99.90;;;;;;5090633;28;21036;-67
2024/02/18 05:17:06;;;;;;;19.37;13.27;;;4.60;99.90;;;;;;5100731;28;20445;-67
2024/02/18 05:19:34;;;;;;;18.67;11.73;;;4.70;99.90;;;;;;5108491;28;20443;-67
2024/02/18 05:22:02;;;;;;;24.47;12.93;;;4.70;99.90;;;;;;5107615;28;20887;-67
2024/02/18 05:24:32;;;;;;;23.40;13.40;;;4.60;99.90;;;;;;5091238;28;20468;-67
2024/02/18 05:27:01;;;;;;;23.00;11.90;;;4.60;99.90;;;;;;5109838;28;20463;-68
2024/02/18 05:29:28;;;;;;;25.00;13.17;;;4.60;99.90;;;;;;5109126;28;20976;-68
2024/02/18 05:31:56;;;;;;;23.30;12.53;;;4.70;99.90;;;;;;5109733;28;20483;-67
2024/02/18 05:34:24;;;;;;;18.00;11.20;;;4.80;99.90;;;;;;5092245;28;20843;-67
2024/02/18 05:36:53;;;;;;;20.50;12.40;;;4.70;99.90;;;;;;5096317;28;20517;-68
2024/02/18 05:39:20;;;;;;;22.20;12.70;;;4.80;99.90;;;;;;5111037;28;20972;-68
2024/02/18 05:41:50;;;;;;;23.30;11.70;;;4.90;99.90;;;;;;5109459;28;20516;-67
2024/02/18 05:44:18;;;;;;;21.30;12.93;;;4.80;99.90;;;;;;5110637;28;20482;-67
2024/02/18 05:46:46;;;;;;;21.77;13.30;;;4.80;99.90;;;;;;5110041;28;20445;-68
2024/02/18 05:49:14;;;;;;;22.17;12.57;;;4.80;99.90;;;;;;5111117;28;20444;-68
2024/02/18 05:51:42;;;;;;;18.63;12.13;;;4.80;99.90;;;;;;5110328;28;20479;-68
2024/02/18 05:54:10;;;;;;;21.80;12.83;;;4.80;99.90;;;;;;5110643;28;20498;-68
2024/02/18 05:56:38;;;;;;;19.20;11.20;;;4.80;99.90;;;;;;5098687;28;21271;-68
2024/02/18 05:59:07;;;;;;;22.80;11.53;;;4.70;99.90;;;;;;5094637;28;20856;-68
2024/02/18 06:01:35;;;;;;;18.70;11.17;;;4.60;99.90;;;;;;5110060;28;20432;-68
2024/02/18 06:04:03;;;;;;;19.00;11.17;;;4.50;99.90;;;;;;5095923;28;20480;-68
2024/02/18 06:06:32;;;;;;;19.27;11.37;;;4.60;99.90;;;;;;5091746;28;20467;-68
2024/02/18 06:09:00;;;;;;;17.73;11.13;;;4.60;99.90;;;;;;5097232;28;20496;-68
2024/02/18 06:11:27;;;;;;;19.93;11.50;;;4.50;99.90;;;;;;5109119;28;20487;-69
2024/02/18 06:13:55;;;;;;;20.63;12.83;;;4.40;99.90;;;;;;5104476;28;20474;-68
2024/02/18 06:16:24;;;;;;;20.40;12.60;;;4.30;99.90;;;;;;5089690;28;20444;-68
2024/02/18 06:18:52;;;;;;;22.50;12.13;;;4.30;99.90;;;;;;5089546;28;20973;-68
2024/02/18 06:21:21;;;;;;;19.47;12.50;;;4.30;99.90;;;;;;5091193;28;20452;-68
2024/02/18 06:23:55;;;;;;;20.67;10.60;;;4.20;99.90;;;;;;5109785;28;21006;-68
2024/02/18 06:26:24;;;;;;;22.10;12.33;;;4.20;99.90;;;;;;5109151;28;20466;-68
2024/02/18 06:28:52;;;;;;;21.23;12.03;;;4.10;99.90;;;;;;5110077;28;20439;-68
2024/02/18 06:31:20;;;;;;;17.53;10.03;;;4.10;99.90;;;;;;5109384;28;20444;-68
2024/02/18 06:33:49;;;;;;;20.30;12.60;;;4.10;99.90;;;;;;5109797;28;20842;-68
2024/02/18 06:36:17;;;;;;;23.80;13.70;;;4.30;99.90;;;;;;5110058;28;20515;-68
2024/02/18 06:38:45;;;;;;;21.80;13.00;;;4.50;99.90;;;;;;5109976;28;20930;-67
2024/02/18 06:41:14;;;;;;;24.07;13.13;;;4.70;99.90;;;;;;5109497;28;20530;-67
2024/02/18 06:43:42;;;;;;;21.90;13.47;;;4.70;99.90;;;;;;5106509;28;20561;-67
2024/02/18 06:46:10;;;;;;;23.20;13.30;;;4.80;99.90;;;;;;5089189;28;20443;-67
2024/02/18 06:48:40;;;;;;;25.13;15.00;;;4.80;99.90;;;;;;5089283;28;20474;-67
2024/02/18 06:51:10;;;;;;;25.00;14.20;;;4.90;99.90;;;;;;5088812;28;20477;-67
2024/02/18 06:53:38;;;;;;;27.70;16.07;;;5.10;99.90;;;;;;5094736;28;20556;-67
2024/02/18 06:56:06;;;;;;;25.37;14.77;;;5.20;99.90;;;;;;5093845;28;20969;-67
2024/02/18 06:58:34;;;;;;;23.53;15.40;;;5.30;99.90;;;;;;5109231;28;20900;-68
2024/02/18 07:01:02;;;;;;;29.50;15.90;;;5.50;99.90;;;;;;5108965;28;20445;-66
2024/02/18 07:03:30;;;;;;;26.43;15.03;;;5.60;99.90;;;;;;5107514;28;20504;-67
2024/02/18 07:05:58;;;;;;;22.60;13.90;;;5.70;99.90;;;;;;5103948;28;20449;-67
2024/02/18 07:08:28;;;;;;;23.53;14.70;;;5.80;99.90;;;;;;5108660;28;20823;-67
2024/02/18 07:10:56;;;;;;;23.80;14.60;;;5.90;99.90;;;;;;5108943;28;20448;-68
2024/02/18 07:13:24;;;;;;;21.17;13.23;;;6.00;99.90;;;;;;5107588;28;20488;-67
2024/02/18 07:15:52;;;;;;;22.50;13.87;;;6.00;99.90;;;;;;5088654;28;20460;-67
2024/02/18 07:18:20;;;;;;;21.73;13.70;;;6.00;99.90;;;;;;5088826;28;20865;-68
2024/02/18 07:20:48;;;;;;;22.57;13.27;;;6.10;99.90;;;;;;5088279;28;20451;-67
2024/02/18 07:23:16;;;;;;;23.63;14.43;;;6.10;99.90;;;;;;5093412;28;20493;-67
2024/02/18 07:25:45;;;;;;;23.90;14.17;;;6.00;99.90;;;;;;5106737;28;20456;-67
2024/02/18 07:28:15;;;;;;;23.80;12.50;;;6.10;99.90;;;;;;5108618;28;20477;-68
2024/02/18 07:30:43;;;;;;;23.50;13.33;;;6.10;99.90;;;;;;5108625;28;20479;-67
2024/02/18 07:33:12;;;;;;;22.10;12.13;;;6.20;99.90;;;;;;5108401;28;20474;-67
2024/02/18 07:35:40;;;;;;;20.20;12.50;;;6.30;99.90;;;;;;5089221;28;20450;-67
2024/02/18 07:38:08;;;;;;;20.80;12.80;;;6.50;99.90;;;;;;5088368;28;20446;-67
2024/02/18 07:40:36;;;;;;;22.50;13.03;;;6.50;99.90;;;;;;5093664;28;20959;-67
2024/02/18 07:43:05;;;;;;;23.27;14.43;;;6.60;99.90;;;;;;5106705;28;20950;-67
2024/02/18 07:45:33;;;;;;;21.63;11.83;;;6.70;99.90;;;;;;5106319;28;20450;-68
2024/02/18 07:48:01;;;;;;;19.63;13.63;;;6.90;99.90;;;;;;5107395;28;20448;-68
2024/02/18 07:50:29;;;;;;;22.23;13.10;;;7.00;99.90;;;;;;5106488;28;20438;-67
2024/02/18 07:52:57;;;;;;;19.90;12.80;;;7.20;99.90;;;;;;5106646;28;20478;-68
2024/02/18 07:55:25;;;;;;;19.80;13.20;;;7.40;99.90;;;;;;5106858;28;20462;-67
2024/02/18 07:57:53;;;;;;;17.83;11.70;;;7.70;99.90;;;;;;5104764;28;21231;-68
2024/02/18 08:00:22;;;;;;;20.23;11.43;;;7.90;99.90;;;;;;5107116;28;20527;-68
2024/02/18 08:02:50;;;;;;;16.67;10.80;;;8.10;99.90;;;;;;5106458;28;20437;-67
2024/02/18 08:05:18;;;;;;;18.40;11.83;;;8.20;99.90;;;;;;5107336;28;20463;-68
2024/02/18 08:07:46;;;;;;;18.77;11.80;;;8.20;99.90;;;;;;5106409;28;21015;-66
2024/02/18 08:10:14;;;;;;;18.87;11.60;;;8.30;99.90;;;;;;5106369;28;20441;-68
2024/02/18 08:12:42;;;;;;;18.47;11.50;;;8.40;99.90;;;;;;5105548;28;20481;-68
2024/02/18 08:15:11;;;;;;;19.03;11.70;;;8.60;99.90;;;;;;5106498;28;20488;-67
2024/02/18 08:17:41;;;;;;;17.03;10.80;;;8.60;99.90;;;;;;5106175;28;20457;-67
2024/02/18 08:20:10;;;;;;;19.90;11.63;;;8.70;99.90;;;;;;5106556;28;20476;-67
2024/02/18 08:22:38;;;;;;;19.03;11.40;;;8.90;99.90;;;;;;5105803;28;21199;-68
2024/02/18 08:25:08;;;;;;;17.30;10.53;;;9.00;99.90;;;;;;5106590;28;20462;-67
2024/02/18 08:27:37;;;;;;;16.03;10.90;;;9.30;99.90;;;;;;5105957;28;20441;-67
2024/02/18 08:30:08;;;;;;;18.47;11.63;;;9.50;99.90;;;;;;5106464;28;20536;-67
2024/02/18 08:32:37;;;;;;;16.17;10.53;;;9.60;99.90;;;;;;5105921;28;20994;-67
2024/02/18 08:35:08;;;;;;;16.60;10.97;;;9.60;99.90;;;;;;5107876;28;20484;-68
2024/02/18 08:37:37;;;;;;;17.20;9.93;;;9.80;99.90;;;;;;5089265;28;20451;-67
2024/02/18 08:40:10;;;;;;;17.70;10.80;;;9.90;99.90;;;;;;5089483;28;20531;-67
2024/02/18 08:42:38;;;;;;;15.87;10.47;;;10.00;99.90;;;;;;5088946;28;20447;-66
2024/02/18 08:45:08;;;;;;;17.40;10.50;;;10.10;99.90;;;;;;5093398;28;20836;-66
2024/02/18 08:47:36;;;;;;;16.13;10.27;;;10.20;99.90;;;;;;5101812;28;20558;-67
2024/02/18 08:50:05;;;;;;;15.47;9.17;;;10.30;99.90;;;;;;5103994;28;20441;-67
2024/02/18 08:52:34;;;;;;;16.63;10.23;;;10.50;99.90;;;;;;5098493;28;20469;-67
2024/02/18 08:55:02;;;;;;;16.77;10.00;;;10.70;99.90;;;;;;5104030;28;20481;-69
2024/02/18 08:57:30;;;;;;;15.40;9.80;;;11.00;99.90;;;;;;5098939;28;20516;-68
2024/02/18 08:59:59;;;;;;;17.87;10.30;;;11.10;99.90;;;;;;5089137;28;20515;-67
2024/02/18 09:02:26;;;;;;;16.60;9.93;;;11.30;99.90;;;;;;5102578;28;20447;-68
2024/02/18 09:04:54;;;;;;;13.53;9.33;;;11.50;99.90;;;;;;5104936;28;20559;-67
2024/02/18 09:07:22;;;;;;;15.93;10.03;;;11.70;99.90;;;;;;5101387;28;20446;-67
2024/02/18 09:09:52;;;;;;;15.27;9.57;;;11.90;99.90;;;;;;5100321;28;20445;-69
2024/02/18 09:12:20;;;;;;;17.17;8.90;;;12.10;99.90;;;;;;5087269;28;20461;-68
2024/02/18 09:14:48;;;;;;;15.20;8.77;;;12.30;99.90;;;;;;5086036;28;20897;-68
2024/02/18 09:17:17;;;;;;;12.83;8.83;;;12.50;99.90;;;;;;5089840;28;20492;-68
2024/02/18 09:19:46;;;;;;;16.00;9.20;;;12.70;99.90;;;;;;5095236;28;20543;-68
2024/02/18 09:22:15;;;;;;;15.37;9.50;;;12.60;99.90;;;;;;5087006;28;20854;-68
2024/02/18 09:24:44;;;;;;;14.93;9.70;;;12.80;99.90;;;;;;5087774;28;20465;-68
2024/02/18 09:27:13;;;;;;;13.93;8.63;;;12.90;99.90;;;;;;5100372;28;20457;-69
2024/02/18 09:29:41;;;;;;;14.20;9.37;;;13.20;99.90;;;;;;5102690;28;20457;-68
2024/02/18 09:32:09;;;;;;;14.27;9.07;;;13.40;99.90;;;;;;5086862;28;20872;-68
2024/02/18 09:34:37;;;;;;;15.20;8.67;;;13.60;99.90;;;;;;5095098;28;20517;-71
2024/02/18 09:37:06;;;;;;;14.17;10.53;;;13.70;99.90;;;;;;5107415;28;20454;-69
2024/02/18 09:39:34;;;;;;;13.37;8.87;;;13.70;99.90;;;;;;5107681;28;20447;-69
2024/02/18 09:42:08;;;;;;;17.83;9.63;;;13.90;99.90;;;;;;5107416;28;20447;-67
2024/02/18 09:44:41;;;;;;;14.33;10.07;;;14.10;99.90;;;;;;5102530;28;20908;-69
2024/02/18 09:47:14;;;;;;;14.53;9.07;;;14.20;99.90;;;;;;5102491;28;20453;-69
2024/02/18 09:49:42;;;;;;;14.57;9.00;;;14.10;99.90;;;;;;5105836;28;20478;-69
2024/02/18 09:52:13;;;;;;;14.10;9.43;;;14.10;99.90;;;;;;5105793;28;20461;-69
2024/02/18 09:54:41;;;;;;;13.03;9.10;;;13.90;99.90;;;;;;5099534;28;20480;-71
2024/02/18 09:57:09;;;;;;;15.47;10.30;;;13.90;99.90;;;;;;5091003;28;20442;-70
2024/02/18 09:59:38;;;;;;;15.07;9.37;;;13.80;99.90;;;;;;5104746;28;20871;-71
2024/02/18 10:02:08;;;;;;;15.10;9.83;;;13.80;99.90;;;;;;5105329;28;20445;-68
2024/02/18 10:04:36;;;;;;;14.70;8.73;;;14.00;99.90;;;;;;5108298;28;20445;-66
2024/02/18 10:07:05;;;;;;;15.27;9.50;;;14.40;99.90;;;;;;5102429;28;20444;-68
2024/02/18 10:09:33;;;;;;;13.90;9.20;;;14.50;99.90;;;;;;5110454;28;20539;-66
2024/02/18 10:12:01;;;;;;;14.00;9.03;;;14.60;99.90;;;;;;5108003;28;20973;-69
2024/02/18 10:14:29;;;;;;;14.63;9.30;;;14.80;99.90;;;;;;5108102;28;20606;-69
2024/02/18 10:16:59;;;;;;;14.67;8.53;;;14.90;99.90;;;;;;5100283;28;20595;-69
2024/02/18 10:19:27;;;;;;;15.13;9.60;;;14.90;99.90;;;;;;5110926;28;20494;-67
2024/02/18 10:21:55;;;;;;;14.90;9.30;;;14.90;99.90;;;;;;5104879;28;20508;-67
2024/02/18 10:24:23;;;;;;;13.00;8.33;;;15.00;99.90;;;;;;5105547;28;20488;-70
2024/02/18 10:26:52;;;;;;;13.50;8.50;;;15.00;99.90;;;;;;5108133;28;21143;-70
2024/02/18 10:29:20;;;;;;;13.37;8.47;;;15.10;99.90;;;;;;5108933;28;21105;-70
2024/02/18 10:31:48;;;;;;;13.40;8.57;;;15.30;99.90;;;;;;5103922;28;20437;-73
2024/02/18 10:34:19;;;;;;;18.07;9.07;;;15.60;99.90;;;;;;5108816;28;20487;-68
2024/02/18 10:36:49;;;;;;;12.93;7.73;;;15.70;99.70;;;;;;5109696;28;20471;-68
2024/02/18 10:39:17;;;;;;;13.63;8.60;;;15.80;98.40;;;;;;5110327;28;21312;-70
2024/02/18 10:41:53;;;;;;;13.17;8.07;;;15.90;98.80;;;;;;5110821;28;20510;-71
2024/02/18 10:44:21;;;;;;;14.07;8.20;;;16.10;97.10;;;;;;5108512;28;20512;-68
2024/02/18 10:46:51;;;;;;;13.30;8.00;;;16.20;96.50;;;;;;5107770;28;20452;-70
2024/02/18 10:49:26;;;;;;;15.10;8.03;;;16.20;95.90;;;;;;5109377;28;20494;-67
2024/02/18 10:52:15;;;;;;;12.23;7.43;;;16.30;94.20;;;;;;5108842;28;20464;-68
2024/02/18 10:54:49;;;;;;;11.90;6.90;;;16.50;91.90;;;;;;5108424;28;20508;-69
2024/02/18 10:57:23;;;;;;;10.93;5.87;;;16.40;94.20;;;;;;5110451;28;20510;-70
2024/02/18 10:59:57;;;;;;;12.27;6.03;;;16.40;91.30;;;;;;5102288;28;20442;-69
2024/02/18 11:02:29;;;;;;;10.70;5.60;;;16.40;92.30;;;;;;5096381;28;20452;-68
2024/02/18 11:04:59;;;;;;;12.13;6.27;;;16.40;91.60;;;;;;5107034;28;20449;-68
2024/02/18 11:07:27;;;;;;;13.57;6.13;;;16.70;90.80;;;;;;5099953;28;20904;-70
2024/02/18 11:09:57;;;;;;;11.10;6.10;;;16.80;90.00;;;;;;5101750;28;20455;-71
2024/02/18 11:12:26;;;;;;;11.03;5.90;;;16.90;90.20;;;;;;5102727;28;20450;-71
2024/02/18 11:14:56;;;;;;;11.20;5.70;;;16.80;89.10;;;;;;5102312;28;20469;-70
2024/02/18 11:17:25;;;;;;;10.33;5.60;;;16.90;88.60;;;;;;5101309;28;20440;-70
2024/02/18 11:19:55;;;;;;;10.10;5.40;;;16.80;87.80;;;;;;5102580;28;20451;-72
2024/02/18 11:22:26;;;;;;;11.03;4.70;;;16.90;86.10;;;;;;5102897;27;20444;-71
2024/02/18 11:24:57;;;;;;;12.20;5.50;;;16.80;88.00;;;;;;5107514;28;20509;-71
2024/02/18 11:27:25;;;;;;;10.70;5.57;;;16.80;86.40;;;;;;5100188;28;20502;-70
2024/02/18 11:29:53;;;;;;;11.40;5.83;;;16.80;82.90;;;;;;5090017;28;20447;-70
2024/02/18 11:32:21;;;;;;;12.10;5.50;;;16.70;81.90;;;;;;5089001;28;20446;-71
2024/02/18 11:34:49;;;;;;;12.30;5.70;;;16.40;82.00;;;;;;5108159;28;21095;-71
2024/02/18 11:37:33;;;;;;;14.43;8.63;;;16.20;82.00;;;;;;5100866;28;20961;-71
2024/02/18 11:40:07;;;;;;;14.10;8.73;;;15.60;86.40;;;;;;5103875;28;20531;-71
2024/02/18 11:42:41;;;;;;;12.30;7.80;;;14.90;88.80;;;;;;5104655;28;20475;-71
2024/02/18 11:45:11;;;;;;;14.40;8.33;;;14.60;90.00;;;;;;5110472;28;20516;-71
2024/02/18 11:47:39;;;;;;;14.67;8.07;;;14.40;90.60;;;;;;5091794;28;20509;-72
2024/02/18 11:50:08;;;;;;;13.47;7.77;;;14.40;91.20;;;;;;5089905;28;20969;-71
2024/02/18 11:52:38;;;;;;;12.10;7.13;;;14.50;90.60;;;;;;5089772;28;20442;-70
2024/02/18 11:55:13;;;;;;;13.73;7.70;;;14.60;90.50;;;;;;5089454;28;20494;-70
2024/02/18 11:57:42;;;;;;;12.77;6.50;;;14.80;89.80;;;;;;5106141;28;20510;-70
2024/02/18 12:00:12;;;;;;;13.93;9.03;;;14.90;90.50;;;;;;5109619;28;20553;-70
2024/02/18 12:02:44;;;;;;;14.00;8.20;;;14.90;90.90;;;;;;5108844;28;20515;-70
2024/02/18 12:05:12;;;;;;;12.77;7.33;;;14.90;90.30;;;;;;5109013;28;20461;-70
2024/02/18 12:07:41;;;;;;;13.20;7.30;;;14.80;89.80;;;;;;5089246;28;20468;-70
2024/02/18 12:10:10;;;;;;;15.33;7.10;;;14.60;90.60;;;;;;5088858;28;20482;-71
2024/02/18 12:12:38;;;;;;;13.57;7.80;;;14.60;91.00;;;;;;5094243;28;20537;-70
2024/02/18 12:15:08;;;;;;;12.07;7.30;;;14.70;90.10;;;;;;5104160;28;21218;-69
2024/02/18 12:17:36;;;;;;;11.87;6.50;;;14.60;90.00;;;;;;5103565;28;20447;-70
2024/02/18 12:20:06;;;;;;;12.10;7.10;;;14.70;90.40;;;;;;5105987;28;20449;-70
2024/02/18 12:22:35;;;;;;;12.70;6.50;;;14.60;90.40;;;;;;5102412;28;20434;-70
2024/02/18 12:25:09;;;;;;;11.80;7.20;;;14.60;90.60;;;;;;5103993;28;20463;-70
2024/02/18 12:27:38;;;;;;;10.93;6.13;;;14.60;90.90;;;;;;5099187;28;20512;-70
2024/02/18 12:30:08;;;;;;;12.60;7.30;;;14.60;91.10;;;;;;5101873;28;20478;-69
2024/02/18 12:32:36;;;;;;;12.23;7.50;;;14.40;91.10;;;;;;5102017;28;20445;-70
2024/02/18 12:35:04;;;;;;;13.57;7.37;;;14.30;91.00;;;;;;5103196;28;20567;-69
2024/02/18 12:37:33;;;;;;;14.77;7.73;;;14.20;91.60;;;;;;5100392;28;20441;-70
2024/02/18 12:40:05;;;;;;;14.03;8.63;;;14.20;91.70;;;;;;5102990;28;20457;-69
2024/02/18 12:42:34;;;;;;;12.90;7.30;;;14.20;93.00;;;;;;5103731;28;21305;-69
2024/02/18 12:45:23;;;;;;;16.23;8.20;;;14.30;92.80;;;;;;5102041;28;20481;-69